Time;durP1;ratioP1;P1;durP2;ratioP2;P2;SDS_P1;SDS_P2;PMS_P1;PMS_P2;Temp;Humidity;BMP_temperature;BMP_pressure;BME280_temperature;BME280_humidity;BME280_pressure;Samples;Min_cycle;Max_cycle;Signal;HPM_P1;HPM_P2
2023/05/28 00:00:50;;;;;;;7.93;6.27;;;;;;;15.76;100.00;94549.25;5070031;28;20727;-44
2023/05/28 00:03:19;;;;;;;12.23;6.23;;;;;;;15.72;100.00;94545.41;5069889;28;20606;-43
2023/05/28 00:05:46;;;;;;;7.00;6.30;;;;;;;15.62;100.00;94533.69;5069738;28;20636;-44
2023/05/28 00:08:13;;;;;;;11.40;7.10;;;;;;;15.71;100.00;94556.66;5069988;28;20201;-41
2023/05/28 00:10:41;;;;;;;7.17;6.47;;;;;;;15.64;100.00;94550.63;5069637;28;20222;-44
2023/05/28 00:13:09;;;;;;;8.73;7.33;;;;;;;15.61;100.00;94544.97;5069803;28;20694;-44
2023/05/28 00:15:36;;;;;;;6.77;5.83;;;;;;;15.60;100.00;94557.06;5069854;28;20197;-44
2023/05/28 00:18:03;;;;;;;7.37;5.63;;;;;;;15.59;100.00;94557.22;5071197;28;20193;-44
2023/05/28 00:20:30;;;;;;;6.43;5.83;;;;;;;15.63;100.00;94555.91;5070283;28;20194;-44
2023/05/28 00:22:57;;;;;;;9.57;6.27;;;;;;;15.47;100.00;94537.00;5069756;28;20318;-45
2023/05/28 00:25:24;;;;;;;7.50;5.70;;;;;;;15.60;100.00;94562.22;5069771;28;20656;-44
2023/05/28 00:27:51;;;;;;;7.43;6.00;;;;;;;15.48;100.00;94530.06;5069492;28;20265;-45
2023/05/28 00:30:19;;;;;;;6.47;5.87;;;;;;;15.58;100.00;94551.25;5069593;28;20565;-45
2023/05/28 00:32:46;;;;;;;6.80;5.33;;;;;;;15.55;100.00;94549.84;5068901;28;20206;-45
2023/05/28 00:35:12;;;;;;;7.47;5.57;;;;;;;15.55;100.00;94546.47;5069605;28;20645;-44
2023/05/28 00:37:39;;;;;;;6.47;5.77;;;;;;;15.53;100.00;94538.88;5069423;28;20719;-44
2023/05/28 00:40:07;;;;;;;9.93;5.53;;;;;;;15.44;100.00;94528.81;5069583;28;20568;-45
2023/05/28 00:42:35;;;;;;;6.97;5.30;;;;;;;15.34;100.00;94523.88;5069572;28;20183;-45
2023/05/28 00:45:02;;;;;;;6.87;5.47;;;;;;;15.47;100.00;94534.44;5069756;28;20205;-46
2023/05/28 00:47:30;;;;;;;5.67;5.17;;;;;;;15.47;100.00;94538.78;5070484;28;20198;-44
2023/05/28 00:50:00;;;;;;;11.40;6.40;;;;;;;15.48;100.00;94532.66;5071432;28;20671;-45
2023/05/28 00:52:27;;;;;;;9.43;5.00;;;;;;;15.47;100.00;94533.63;5071186;28;20291;-46
2023/05/28 00:54:56;;;;;;;6.10;5.50;;;;;;;15.50;100.00;94530.69;5070197;28;20182;-45
2023/05/28 00:57:23;;;;;;;5.70;5.20;;;;;;;15.45;100.00;94531.22;5069431;28;20297;-44
2023/05/28 00:59:51;;;;;;;5.60;5.10;;;;;;;15.43;100.00;94522.84;5069765;28;20182;-45
2023/05/28 01:02:18;;;;;;;5.63;5.13;;;;;;;15.46;100.00;94532.03;5069537;28;20279;-45
2023/05/28 01:04:46;;;;;;;5.50;5.00;;;;;;;15.46;100.00;94527.69;5069315;28;20201;-46
2023/05/28 01:07:13;;;;;;;8.87;5.40;;;;;;;15.44;100.00;94523.66;5069283;28;20194;-46
2023/05/28 01:09:40;;;;;;;5.80;5.30;;;;;;;15.44;100.00;94531.38;5070418;28;20244;-46
2023/05/28 01:12:09;;;;;;;10.27;5.00;;;;;;;15.41;100.00;94527.38;5070591;28;20343;-45
2023/05/28 01:14:38;;;;;;;6.80;5.17;;;;;;;15.42;100.00;94518.69;5069808;28;20706;-45
2023/05/28 01:17:05;;;;;;;6.80;5.57;;;;;;;15.44;100.00;94519.31;5069366;28;20281;-43
2023/05/28 01:19:32;;;;;;;6.90;5.60;;;;;;;15.39;100.00;94503.56;5069473;28;20193;-44
2023/05/28 01:22:04;;;;;;;5.90;5.40;;;;;;;15.46;100.00;94508.84;5069390;28;20194;-43
2023/05/28 01:24:34;;;;;;;5.77;5.07;;;;;;;15.27;100.00;94471.44;5069426;28;20210;-44
2023/05/28 01:27:02;;;;;;;5.63;4.67;;;;;;;15.46;100.00;94498.53;5069611;28;20271;-44
2023/05/28 01:29:29;;;;;;;5.90;5.00;;;;;;;15.46;100.00;94507.06;5069422;28;20194;-44
2023/05/28 01:31:56;;;;;;;6.40;5.83;;;;;;;15.30;100.00;94481.41;5070080;28;20278;-45
2023/05/28 01:34:23;;;;;;;9.00;5.57;;;;;;;15.27;100.00;94477.38;5070027;28;20259;-44
2023/05/28 01:36:56;;;;;;;6.37;5.77;;;;;;;15.32;100.00;94498.28;5070253;28;20190;-44
2023/05/28 01:39:26;;;;;;;7.00;5.70;;;;;;;15.36;100.00;94511.63;5069449;28;20182;-44
2023/05/28 01:41:55;;;;;;;6.03;5.50;;;;;;;15.34;100.00;94507.63;5070098;28;20186;-44
2023/05/28 01:44:23;;;;;;;9.60;6.30;;;;;;;15.33;100.00;94512.00;5075132;28;20197;-46
2023/05/28 01:46:52;;;;;;;8.30;5.87;;;;;;;15.34;100.00;94510.22;5076911;28;20214;-45
2023/05/28 01:49:20;;;;;;;5.40;4.90;;;;;;;15.37;100.00;94509.84;5072400;28;20195;-44
2023/05/28 01:51:47;;;;;;;6.40;5.63;;;;;;;15.37;100.00;94502.94;5073087;28;20267;-44
2023/05/28 01:54:14;;;;;;;7.33;5.50;;;;;;;15.38;100.00;94503.75;5072896;28;20225;-46
2023/05/28 01:56:41;;;;;;;5.37;4.87;;;;;;;15.37;100.00;94495.22;5072756;28;20198;-45
2023/05/28 01:59:09;;;;;;;7.43;5.63;;;;;;;15.37;100.00;94500.38;5077144;28;20190;-43
2023/05/28 02:01:36;;;;;;;6.40;5.40;;;;;;;15.37;100.00;94486.66;5073214;28;20194;-45
2023/05/28 02:04:03;;;;;;;5.23;4.80;;;;;;;14.89;100.00;94413.91;5072555;28;20225;-44
2023/05/28 02:06:32;;;;;;;6.67;5.97;;;;;;;15.46;100.00;94503.69;5072261;28;20198;-44
2023/05/28 02:08:59;;;;;;;6.30;5.70;;;;;;;15.44;100.00;94505.63;5072630;28;20190;-43
2023/05/28 02:11:26;;;;;;;8.03;6.37;;;;;;;15.44;100.00;94503.03;5072121;28;20689;-43
2023/05/28 02:13:54;;;;;;;9.67;5.30;;;;;;;15.45;100.00;94502.06;5072111;28;20214;-43
2023/05/28 02:16:22;;;;;;;5.93;5.33;;;;;;;15.38;100.00;94488.28;5071972;28;20996;-44
2023/05/28 02:18:52;;;;;;;5.57;5.03;;;;;;;15.43;100.00;94497.09;5072525;28;20209;-44
2023/05/28 02:21:19;;;;;;;14.73;7.10;;;;;;;15.19;100.00;94459.41;5071899;28;20201;-43
2023/05/28 02:23:47;;;;;;;5.10;4.70;;;;;;;15.48;100.00;94502.53;5072165;28;20271;-45
2023/05/28 02:26:14;;;;;;;5.77;5.23;;;;;;;15.48;100.00;94509.47;5071965;28;20190;-45
2023/05/28 02:28:42;;;;;;;5.83;5.33;;;;;;;15.46;100.00;94514.78;5072381;28;20253;-43
2023/05/28 02:31:09;;;;;;;6.57;5.50;;;;;;;15.44;100.00;94505.63;5072077;28;20681;-45
2023/05/28 02:33:38;;;;;;;5.50;4.80;;;;;;;15.44;100.00;94516.72;5072406;28;20637;-45
2023/05/28 02:36:06;;;;;;;5.17;4.73;;;;;;;15.39;100.00;94506.13;5071744;28;20616;-45
2023/05/28 02:38:32;;;;;;;11.60;5.40;;;;;;;15.36;100.00;94495.38;5072195;28;20603;-45
2023/05/28 02:40:59;;;;;;;5.80;5.23;;;;;;;15.46;100.00;94517.38;5072096;28;20194;-45
2023/05/28 02:43:26;;;;;;;10.00;4.97;;;;;;;15.48;100.00;94510.25;5071459;28;20186;-45
2023/05/28 02:45:53;;;;;;;5.60;5.10;;;;;;;15.47;100.00;94513.81;5071698;28;20190;-45
2023/05/28 02:48:19;;;;;;;5.20;4.80;;;;;;;15.46;100.00;94507.06;5071070;28;20670;-45
2023/05/28 02:50:48;;;;;;;5.93;5.07;;;;;;;15.46;100.00;94498.53;5071882;28;20190;-44
2023/05/28 02:53:15;;;;;;;4.97;4.43;;;;;;;15.51;100.00;94509.13;5071138;28;20222;-44
2023/05/28 02:55:41;;;;;;;5.17;4.67;;;;;;;15.48;100.00;94507.69;5070674;28;20665;-47
2023/05/28 02:58:08;;;;;;;7.37;4.90;;;;;;;15.41;100.00;94501.59;5071180;28;20194;-44
2023/05/28 03:00:35;;;;;;;8.10;4.87;;;;;;;15.51;100.00;94515.06;5071128;28;20186;-44
2023/05/28 03:03:02;;;;;;;5.97;5.30;;;;;;;15.49;100.00;94511.84;5071400;28;20190;-43
2023/05/28 03:05:31;;;;;;;5.77;5.20;;;;;;;15.52;100.00;94511.50;5071288;28;20183;-44
2023/05/28 03:07:59;;;;;;;5.50;5.00;;;;;;;15.52;100.00;94510.72;5071152;28;20218;-44
2023/05/28 03:10:26;;;;;;;5.70;5.20;;;;;;;15.49;100.00;94513.63;5071260;28;20251;-44
2023/05/28 03:12:53;;;;;;;6.57;5.40;;;;;;;15.50;100.00;94504.91;5071182;28;20834;-45
2023/05/28 03:15:19;;;;;;;5.30;4.80;;;;;;;15.50;100.00;94508.31;5070963;28;20656;-44
2023/05/28 03:17:46;;;;;;;4.90;4.50;;;;;;;15.52;100.00;94503.78;5071140;28;20707;-43
2023/05/28 03:20:13;;;;;;;7.90;5.30;;;;;;;15.51;100.00;94506.53;5070745;28;20688;-45
2023/05/28 03:22:40;;;;;;;5.23;4.83;;;;;;;15.56;100.00;94510.19;5070959;28;20179;-44
2023/05/28 03:25:10;;;;;;;5.87;5.10;;;;;;;15.58;100.00;94504.88;5070619;28;20197;-45
2023/05/28 03:27:37;;;;;;;9.90;5.20;;;;;;;15.59;100.00;94510.81;5071010;28;20230;-45
2023/05/28 03:30:06;;;;;;;7.03;5.60;;;;;;;15.59;100.00;94511.66;5071208;28;20198;-43
2023/05/28 03:32:32;;;;;;;7.37;4.97;;;;;;;15.57;100.00;94513.56;5070809;28;20201;-43
2023/05/28 03:34:59;;;;;;;5.80;5.30;;;;;;;15.61;100.00;94520.00;5070613;28;20190;-44
2023/05/28 03:37:26;;;;;;;5.37;4.93;;;;;;;15.62;100.00;94518.22;5070766;28;20307;-44
2023/05/28 03:39:53;;;;;;;6.10;5.60;;;;;;;15.58;100.00;94507.44;5070471;28;20269;-44
2023/05/28 03:42:22;;;;;;;6.10;5.10;;;;;;;15.63;100.00;94512.91;5070390;28;20252;-43
2023/05/28 03:44:48;;;;;;;6.60;6.00;;;;;;;15.63;100.00;94515.47;5070326;28;20590;-46
2023/05/28 03:47:15;;;;;;;7.63;6.10;;;;;;;15.62;100.00;94511.28;5070329;28;20597;-45
2023/05/28 03:49:42;;;;;;;5.90;5.40;;;;;;;15.65;100.00;94513.53;5070381;28;20256;-43
2023/05/28 03:52:09;;;;;;;6.33;5.73;;;;;;;15.68;100.00;94515.00;5070327;28;20201;-44
2023/05/28 03:54:36;;;;;;;6.00;5.50;;;;;;;15.67;100.00;94515.94;5070509;28;20219;-42
2023/05/28 03:57:02;;;;;;;6.07;5.47;;;;;;;15.67;100.00;94515.94;5070323;28;20563;-45
2023/05/28 03:59:31;;;;;;;6.27;5.70;;;;;;;15.68;100.00;94515.00;5070343;28;20195;-45
2023/05/28 04:01:57;;;;;;;5.90;5.30;;;;;;;15.67;100.00;94515.94;5071669;28;20197;-47
2023/05/28 04:04:24;;;;;;;7.50;4.87;;;;;;;15.73;100.00;94516.06;5072064;28;20190;-45
2023/05/28 04:06:51;;;;;;;5.63;5.13;;;;;;;15.71;100.00;94510.25;5069840;28;20248;-46
2023/05/28 04:09:18;;;;;;;6.50;5.90;;;;;;;15.83;100.00;94509.88;5069992;28;20195;-44
2023/05/28 04:11:44;;;;;;;5.97;5.47;;;;;;;15.88;100.00;94515.28;5069717;28;20186;-45
2023/05/28 04:14:11;;;;;;;7.00;5.27;;;;;;;15.93;100.00;94510.41;5070045;28;20220;-45
2023/05/28 04:16:39;;;;;;;5.47;4.93;;;;;;;15.94;100.00;94515.41;5069879;28;20197;-46
2023/05/28 04:19:06;;;;;;;6.30;5.37;;;;;;;15.95;100.00;94516.22;5070935;28;20259;-45
2023/05/28 04:21:33;;;;;;;6.03;5.43;;;;;;;15.99;100.00;94520.84;5072993;28;20197;-44
2023/05/28 04:24:00;;;;;;;6.00;5.40;;;;;;;16.03;100.00;94521.31;5070338;28;20186;-43
2023/05/28 04:26:27;;;;;;;5.53;4.97;;;;;;;16.03;100.00;94523.88;5069631;28;20631;-46
2023/05/28 04:28:54;;;;;;;9.33;5.63;;;;;;;16.03;100.00;94514.34;5069414;28;20279;-45
2023/05/28 04:31:21;;;;;;;6.83;5.50;;;;;;;16.08;100.00;94524.16;5069608;28;20190;-44
2023/05/28 04:33:49;;;;;;;6.47;5.87;;;;;;;15.99;100.00;94510.53;5069414;28;20321;-45
2023/05/28 04:36:16;;;;;;;12.27;6.30;;;;;;;16.13;100.00;94519.25;5069489;28;20802;-46
2023/05/28 04:38:43;;;;;;;7.43;6.00;;;;;;;16.14;100.00;94526.00;5069504;28;20563;-45
2023/05/28 04:41:13;;;;;;;6.17;5.67;;;;;;;16.13;100.00;94527.00;5069593;28;20194;-45
2023/05/28 04:43:41;;;;;;;8.87;5.80;;;;;;;16.14;100.00;94528.59;5069269;28;20791;-46
2023/05/28 04:46:08;;;;;;;6.20;5.60;;;;;;;16.19;100.00;94528.91;5069772;28;20186;-45
2023/05/28 04:48:36;;;;;;;6.30;5.70;;;;;;;16.21;100.00;94524.34;5069194;28;20194;-45
2023/05/28 04:51:05;;;;;;;6.17;5.57;;;;;;;16.27;100.00;94536.53;5069705;28;20199;-45
2023/05/28 04:53:33;;;;;;;6.47;5.23;;;;;;;16.30;100.00;94536.19;5069150;28;20241;-44
2023/05/28 04:56:00;;;;;;;7.87;6.00;;;;;;;16.34;100.00;94531.47;5069455;28;20187;-44
2023/05/28 04:58:27;;;;;;;7.50;5.40;;;;;;;16.39;100.00;94539.47;5068997;28;20275;-46
2023/05/28 05:00:55;;;;;;;7.13;6.00;;;;;;;16.47;99.93;94533.44;5069164;28;20194;-44
2023/05/28 05:03:22;;;;;;;6.50;5.90;;;;;;;16.54;99.64;94536.94;5069245;28;20198;-44
2023/05/28 05:05:49;;;;;;;7.40;5.93;;;;;;;16.49;97.99;94523.72;5069584;28;20255;-45
2023/05/28 05:08:17;;;;;;;7.30;5.43;;;;;;;16.58;97.07;94538.19;5069395;28;20186;-44
2023/05/28 05:10:44;;;;;;;5.67;5.17;;;;;;;16.62;96.56;94531.66;5069150;28;20186;-45
2023/05/28 05:13:10;;;;;;;6.37;5.53;;;;;;;16.65;96.27;94536.47;5069158;28;20684;-46
2023/05/28 05:15:37;;;;;;;8.00;5.37;;;;;;;16.65;95.81;94523.56;5069281;28;20182;-47
2023/05/28 05:18:04;;;;;;;5.73;5.23;;;;;;;16.72;95.68;94534.81;5069535;28;20260;-42
2023/05/28 05:20:31;;;;;;;5.50;5.00;;;;;;;16.75;95.77;94528.47;5073169;28;20190;-44
2023/05/28 05:22:58;;;;;;;6.33;5.60;;;;;;;16.69;94.30;94514.47;5073714;28;20186;-47
2023/05/28 05:25:26;;;;;;;11.43;6.33;;;;;;;16.80;93.55;94523.59;5072858;28;20681;-46
2023/05/28 05:27:52;;;;;;;7.97;5.57;;;;;;;16.80;93.15;94521.00;5073031;28;20226;-46
2023/05/28 05:30:19;;;;;;;6.47;5.87;;;;;;;16.90;93.55;94518.13;5072879;28;20189;-44
2023/05/28 05:32:46;;;;;;;7.70;5.60;;;;;;;16.92;93.65;94519.53;5073027;28;20666;-46
2023/05/28 05:35:14;;;;;;;6.33;5.53;;;;;;;17.05;93.90;94519.72;5072668;28;20225;-46
2023/05/28 05:37:41;;;;;;;7.70;6.33;;;;;;;17.13;93.14;94523.97;5072891;28;20183;-45
2023/05/28 05:40:09;;;;;;;6.87;5.47;;;;;;;17.26;92.62;94526.69;5072987;28;20236;-45
2023/05/28 05:42:38;;;;;;;6.40;5.27;;;;;;;17.38;92.04;94527.00;5072948;28;20273;-44
2023/05/28 05:45:06;;;;;;;6.10;5.50;;;;;;;17.38;90.31;94527.00;5073058;28;20202;-45
2023/05/28 05:47:33;;;;;;;10.47;6.43;;;;;;;17.53;90.21;94520.03;5073702;28;20190;-47
2023/05/28 05:49:59;;;;;;;8.20;5.43;;;;;;;17.82;89.00;94527.84;5075678;28;20194;-46
2023/05/28 05:52:26;;;;;;;5.73;5.03;;;;;;;17.95;88.35;94535.72;5076981;28;20194;-46
2023/05/28 05:54:53;;;;;;;6.83;5.63;;;;;;;17.92;88.26;94523.97;5074661;28;20225;-46
2023/05/28 05:57:20;;;;;;;6.87;5.23;;;;;;;17.98;88.22;94535.34;5072952;28;20194;-45
2023/05/28 05:59:48;;;;;;;6.50;5.53;;;;;;;17.95;89.63;94522.78;5072790;28;20198;-45
2023/05/28 06:02:14;;;;;;;5.80;5.23;;;;;;;17.90;91.79;94522.53;5072740;28;20209;-46
2023/05/28 06:04:41;;;;;;;6.00;5.20;;;;;;;17.84;91.97;94524.09;5074212;28;20182;-45
2023/05/28 06:07:08;;;;;;;7.43;5.33;;;;;;;17.88;90.83;94525.31;5075992;28;20190;-45
2023/05/28 06:09:35;;;;;;;5.77;5.17;;;;;;;17.86;90.33;94524.69;5073605;28;20186;-45
2023/05/28 06:12:02;;;;;;;6.80;6.10;;;;;;;17.84;91.56;94531.84;5072299;28;20268;-44
2023/05/28 06:14:29;;;;;;;6.00;5.40;;;;;;;17.79;91.13;94536.78;5071973;28;20305;-44
2023/05/28 06:16:57;;;;;;;7.17;5.37;;;;;;;17.77;89.67;94531.78;5072149;28;20186;-44
2023/05/28 06:19:24;;;;;;;6.13;5.13;;;;;;;17.85;89.30;94540.41;5072093;28;20236;-42
2023/05/28 06:21:51;;;;;;;6.33;5.50;;;;;;;17.92;88.81;94549.84;5072544;28;20315;-45
2023/05/28 06:24:18;;;;;;;7.90;5.63;;;;;;;17.98;89.72;94545.69;5073244;28;20272;-47
2023/05/28 06:26:45;;;;;;;7.23;6.40;;;;;;;18.05;90.92;94543.97;5075867;28;20553;-47
2023/05/28 06:29:12;;;;;;;8.00;6.40;;;;;;;18.12;90.60;94544.00;5074588;28;20226;-45
2023/05/28 06:31:40;;;;;;;8.37;5.70;;;;;;;18.15;90.64;94541.84;5072182;28;20199;-43
2023/05/28 06:34:08;;;;;;;5.97;5.37;;;;;;;18.17;90.08;94542.44;5071751;28;20225;-50
2023/05/28 06:36:35;;;;;;;7.80;5.57;;;;;;;18.17;89.71;94544.25;5072412;28;20194;-44
2023/05/28 06:39:03;;;;;;;6.10;5.53;;;;;;;17.98;89.20;94525.00;5072055;28;20222;-47
2023/05/28 06:41:29;;;;;;;7.50;5.27;;;;;;;17.95;88.78;94544.28;5074627;28;20190;-45
2023/05/28 06:43:56;;;;;;;5.73;5.13;;;;;;;17.96;88.47;94540.72;5072471;28;20599;-44
2023/05/28 06:46:23;;;;;;;7.27;5.30;;;;;;;17.91;88.89;94548.22;5073148;28;20236;-45
2023/05/28 06:48:50;;;;;;;6.47;5.67;;;;;;;17.89;90.16;94549.41;5073242;28;20190;-46
2023/05/28 06:51:18;;;;;;;9.63;5.57;;;;;;;17.94;90.03;94547.84;5074017;28;20202;-44
2023/05/28 06:53:45;;;;;;;6.57;5.73;;;;;;;17.95;90.32;94553.81;5075196;28;20194;-45
2023/05/28 06:56:12;;;;;;;6.63;6.03;;;;;;;17.96;91.85;94552.84;5080798;28;20193;-44
2023/05/28 06:58:39;;;;;;;10.07;6.03;;;;;;;17.98;92.56;94556.06;5078856;28;20651;-44
2023/05/28 07:01:05;;;;;;;9.10;6.17;;;;;;;17.99;92.66;94561.03;5086192;28;20226;-44
2023/05/28 07:03:32;;;;;;;8.33;6.93;;;;;;;17.94;92.22;94553.03;5087817;28;20183;-44
2023/05/28 07:05:59;;;;;;;7.97;6.43;;;;;;;18.02;91.89;94557.28;5087894;28;20205;-45
2023/05/28 07:08:27;;;;;;;11.03;6.90;;;;;;;18.09;91.38;94557.31;5087026;28;20182;-44
2023/05/28 07:10:54;;;;;;;7.63;6.63;;;;;;;18.15;90.57;94554.81;5081750;28;20187;-45
2023/05/28 07:13:21;;;;;;;8.07;7.20;;;;;;;18.26;90.37;94556.06;5080228;28;20189;-44
2023/05/28 07:15:48;;;;;;;7.70;6.33;;;;;;;18.38;89.25;94554.56;5078668;28;20224;-43
2023/05/28 07:18:14;;;;;;;9.50;7.43;;;;;;;18.43;88.84;94548.81;5073181;28;20198;-42
2023/05/28 07:20:41;;;;;;;9.10;7.33;;;;;;;18.45;88.59;94555.41;5071107;28;20594;-45
2023/05/28 07:23:11;;;;;;;8.67;7.23;;;;;;;18.44;88.97;94553.03;5070959;28;20186;-44
2023/05/28 07:25:39;;;;;;;7.57;6.73;;;;;;;18.59;88.87;94547.72;5070455;28;20648;-44
2023/05/28 07:28:06;;;;;;;8.20;7.17;;;;;;;18.80;88.34;94550.25;5070632;28;20222;-45
2023/05/28 07:30:32;;;;;;;8.27;6.90;;;;;;;19.00;87.30;94555.56;5070698;28;20258;-44
2023/05/28 07:32:59;;;;;;;8.23;7.43;;;;;;;19.12;84.66;94553.97;5070363;28;20190;-44
2023/05/28 07:35:26;;;;;;;10.80;6.67;;;;;;;19.12;84.07;94550.59;5070658;28;20221;-44
2023/05/28 07:37:54;;;;;;;8.20;5.40;;;;;;;19.11;83.94;94554.19;5070459;28;20198;-44
2023/05/28 07:40:21;;;;;;;9.00;6.40;;;;;;;19.08;84.16;94542.41;5070952;28;20217;-45
2023/05/28 07:42:49;;;;;;;10.07;8.13;;;;;;;19.20;84.44;94542.66;5069832;28;20210;-44
2023/05/28 07:45:16;;;;;;;8.23;5.73;;;;;;;19.29;83.45;94539.69;5070527;28;20198;-44
2023/05/28 07:47:42;;;;;;;7.40;5.53;;;;;;;19.52;80.96;94530.78;5070006;28;20224;-46
2023/05/28 07:50:10;;;;;;;7.50;5.83;;;;;;;19.60;80.69;94527.97;5070333;28;20190;-44
2023/05/28 07:52:37;;;;;;;4.23;3.93;;;;;;;19.70;80.77;94532.84;5069757;28;20251;-46
2023/05/28 07:55:05;;;;;;;3.87;3.47;;;;;;;19.84;78.77;94538.84;5070241;28;20225;-46
2023/05/28 07:57:32;;;;;;;5.13;3.50;;;;;;;19.94;79.41;94529.66;5069945;28;20247;-45
2023/05/28 08:00:00;;;;;;;5.00;3.70;;;;;;;19.90;79.52;94528.44;5070402;28;20194;-45
2023/05/28 08:02:27;;;;;;;3.43;2.93;;;;;;;19.61;79.46;94498.50;5069724;28;20238;-45
2023/05/28 08:04:54;;;;;;;4.63;3.40;;;;;;;19.66;79.92;94524.66;5070149;28;20666;-44
2023/05/28 08:07:21;;;;;;;4.77;4.37;;;;;;;19.54;79.91;94536.56;5069980;28;20285;-43
2023/05/28 08:09:48;;;;;;;9.27;5.13;;;;;;;19.44;80.30;94530.97;5069932;28;20185;-44
2023/05/28 08:12:14;;;;;;;4.07;3.67;;;;;;;19.43;80.21;94526.75;5070162;28;20288;-44
2023/05/28 08:14:41;;;;;;;5.20;4.33;;;;;;;19.40;80.39;94504.63;5070734;28;20214;-46
2023/05/28 08:17:10;;;;;;;5.23;4.67;;;;;;;19.64;80.66;94531.00;5073551;28;20198;-44
2023/05/28 08:19:37;;;;;;;7.20;3.53;;;;;;;19.48;80.24;94514.00;5069594;28;20201;-46
2023/05/28 08:22:03;;;;;;;8.40;4.13;;;;;;;19.58;80.08;94529.19;5069880;28;20201;-46
2023/05/28 08:24:30;;;;;;;7.57;4.60;;;;;;;19.50;79.58;94527.56;5069783;28;20226;-45
2023/05/28 08:26:57;;;;;;;9.73;5.17;;;;;;;19.33;80.02;94528.94;5069645;28;20190;-45
2023/05/28 08:29:24;;;;;;;8.17;5.73;;;;;;;19.30;80.21;94536.13;5070087;28;20252;-44
2023/05/28 08:31:51;;;;;;;7.03;4.90;;;;;;;19.41;80.05;94533.94;5070263;28;20187;-45
2023/05/28 08:34:19;;;;;;;7.40;4.93;;;;;;;19.45;79.08;94535.94;5069663;28;20226;-45
2023/05/28 08:36:46;;;;;;;5.83;3.70;;;;;;;19.41;78.94;94537.34;5069866;28;20198;-45
2023/05/28 08:39:13;;;;;;;3.30;3.00;;;;;;;19.50;79.24;94543.13;5069679;28;20186;-43
2023/05/28 08:41:40;;;;;;;3.40;3.10;;;;;;;19.82;78.68;94533.03;5069780;28;20281;-45
2023/05/28 08:44:07;;;;;;;4.65;3.65;;;;;;;20.12;77.25;94536.03;5071968;28;20749;-45
2023/05/28 08:46:34;;;;;;;3.80;3.42;;;;;;;20.13;77.16;94537.66;5071671;28;20260;-43
2023/05/28 08:49:01;;;;;;;3.20;2.90;;;;;;;20.02;76.00;94513.09;5072508;28;20193;-45
2023/05/28 08:51:32;;;;;;;2.53;2.33;;;;;;;20.01;75.71;94547.84;5071123;28;20202;-44
2023/05/28 08:54:00;;;;;;;3.75;2.63;;;;;;;20.08;75.60;94545.22;5070795;28;20236;-43
2023/05/28 08:56:27;;;;;;;3.67;2.45;;;;;;;20.30;74.68;94541.44;5071022;28;20545;-47
2023/05/28 08:58:54;;;;;;;7.30;4.33;;;;;;;20.43;74.72;94545.81;5069981;28;20202;-45
2023/05/28 09:01:21;;;;;;;7.13;4.22;;;;;;;20.37;75.29;94536.22;5069598;28;20240;-42
2023/05/28 09:03:48;;;;;;;5.65;3.55;;;;;;;20.61;73.62;94543.41;5069693;28;20187;-44
2023/05/28 09:06:15;;;;;;;3.42;3.13;;;;;;;20.81;72.38;94535.56;5069579;28;20194;-46
2023/05/28 09:08:44;;;;;;;6.70;4.75;;;;;;;20.90;72.29;94534.34;5069524;28;20619;-44
2023/05/28 09:11:13;;;;;;;7.50;4.43;;;;;;;21.01;72.06;94533.69;5069306;28;20190;-46
2023/05/28 09:13:44;;;;;;;3.90;3.50;;;;;;;20.93;72.25;94525.31;5069065;28;20213;-45
2023/05/28 09:16:11;;;;;;;5.15;3.10;;;;;;;20.85;73.18;94528.94;5069547;28;20301;-44
2023/05/28 09:18:37;;;;;;;5.13;4.13;;;;;;;20.94;72.50;94534.72;5069010;28;20662;-43
2023/05/28 09:21:10;;;;;;;3.75;3.45;;;;;;;21.11;71.51;94525.44;5069106;28;20197;-44
2023/05/28 09:23:39;;;;;;;5.28;3.30;;;;;;;21.27;69.87;94524.97;5069450;28;20198;-44
2023/05/28 09:26:10;;;;;;;8.02;5.93;;;;;;;21.13;70.56;94525.25;5069366;28;20263;-45
2023/05/28 09:28:41;;;;;;;4.28;2.83;;;;;;;21.11;70.44;94532.47;5070092;28;20233;-44
2023/05/28 09:31:08;;;;;;;5.53;3.22;;;;;;;21.12;69.69;94529.66;5070926;28;20201;-46
2023/05/28 09:33:42;;;;;;;2.88;2.67;;;;;;;21.08;69.13;94528.47;5074568;28;20205;-44
2023/05/28 09:36:08;;;;;;;7.05;3.95;;;;;;;21.26;69.65;94528.59;5068882;28;20540;-45
2023/05/28 09:38:40;;;;;;;5.53;4.18;;;;;;;21.35;69.67;94536.19;5069285;28;20197;-45
2023/05/28 09:41:17;;;;;;;6.20;4.32;;;;;;;21.42;68.08;94529.97;5069069;28;20240;-46
2023/05/28 09:43:46;;;;;;;4.40;4.00;;;;;;;21.50;67.04;94527.09;5069181;28;20303;-44
2023/05/28 09:46:13;;;;;;;5.25;4.75;;;;;;;21.58;67.11;94533.06;5069148;28;20248;-46
2023/05/28 09:48:40;;;;;;;4.20;3.70;;;;;;;21.22;68.50;94537.03;5069259;28;20268;-44
2023/05/28 09:51:08;;;;;;;5.05;3.65;;;;;;;20.96;68.56;94536.13;5069616;28;20287;-50
2023/05/28 09:53:39;;;;;;;7.30;4.60;;;;;;;20.84;69.96;94540.34;5069243;28;20187;-46
2023/05/28 09:56:08;;;;;;;7.38;5.03;;;;;;;20.70;70.77;94533.59;5068878;28;20747;-46
2023/05/28 09:58:36;;;;;;;5.75;4.53;;;;;;;20.61;71.27;94538.22;5068621;28;20588;-45
2023/05/28 10:01:09;;;;;;;7.85;3.97;;;;;;;20.37;71.79;94538.81;5069063;28;20183;-46
2023/05/28 10:03:40;;;;;;;7.95;5.13;;;;;;;20.28;72.41;94533.03;5068905;28;20293;-50
2023/05/28 10:06:11;;;;;;;7.43;4.37;;;;;;;20.41;72.26;94537.41;5072142;28;20281;-46
2023/05/28 10:08:40;;;;;;;15.35;11.68;;;;;;;20.07;73.25;94509.88;5072297;28;20221;-46
2023/05/28 10:11:10;;;;;;;5.40;4.05;;;;;;;20.48;72.42;94530.47;5072806;28;20234;-44
2023/05/28 10:13:37;;;;;;;5.10;4.45;;;;;;;20.71;71.55;94533.38;5072080;28;20240;-46
2023/05/28 10:16:06;;;;;;;7.97;5.07;;;;;;;20.85;71.79;94530.75;5073007;28;20226;-45
2023/05/28 10:18:33;;;;;;;3.53;3.22;;;;;;;20.79;70.94;94534.97;5072732;28;20190;-45
2023/05/28 10:21:01;;;;;;;3.88;3.30;;;;;;;20.79;70.65;94533.16;5074594;28;20689;-43
2023/05/28 10:23:29;;;;;;;3.85;3.45;;;;;;;20.76;70.01;94537.97;5072529;28;20186;-44
2023/05/28 10:25:56;;;;;;;4.15;3.50;;;;;;;20.51;70.21;94537.84;5072214;28;20206;-45
2023/05/28 10:28:23;;;;;;;5.03;4.57;;;;;;;20.50;70.49;94538.84;5072289;28;20230;-45
2023/05/28 10:31:03;;;;;;;4.53;4.13;;;;;;;20.35;71.79;94533.84;5072039;28;20190;-45
2023/05/28 10:33:31;;;;;;;4.55;3.60;;;;;;;20.30;71.54;94503.28;5072064;28;20214;-45
2023/05/28 10:36:01;;;;;;;4.57;3.55;;;;;;;20.72;70.95;94524.59;5071674;28;20241;-44
2023/05/28 10:38:29;;;;;;;4.07;3.55;;;;;;;20.84;70.67;94523.97;5071755;28;20197;-44
2023/05/28 10:41:03;;;;;;;3.92;3.63;;;;;;;21.02;69.83;94522.28;5072209;28;20193;-47
2023/05/28 10:43:45;;;;;;;5.40;3.50;;;;;;;21.14;69.60;94530.25;5071912;28;20239;-43
2023/05/28 10:46:15;;;;;;;4.00;3.60;;;;;;;21.08;69.57;94525.09;5072367;28;20283;-47
2023/05/28 10:49:07;;;;;;;6.25;4.07;;;;;;;20.79;70.04;94527.97;5072450;28;20642;-45
2023/05/28 10:51:51;;;;;;;5.97;4.15;;;;;;;20.69;70.41;94506.81;5073023;28;20214;-46
2023/05/28 10:54:23;;;;;;;4.50;3.70;;;;;;;20.67;70.93;94519.19;5074931;28;20190;-46
2023/05/28 10:57:09;;;;;;;4.60;4.10;;;;;;;20.69;71.20;94514.63;5072001;28;20286;-45
2023/05/28 10:59:49;;;;;;;5.65;3.97;;;;;;;20.88;70.63;94514.75;5072019;28;20600;-45
2023/05/28 11:02:23;;;;;;;5.18;4.70;;;;;;;21.18;69.62;94515.03;5071484;28;20194;-45
2023/05/28 11:04:56;;;;;;;6.40;4.50;;;;;;;21.22;69.31;94485.00;5071262;28;20585;-45
2023/05/28 11:07:29;;;;;;;5.32;4.07;;;;;;;21.52;67.68;94511.28;5071773;28;20625;-46
2023/05/28 11:09:58;;;;;;;5.00;4.05;;;;;;;21.43;67.77;94513.34;5071136;28;20186;-46
2023/05/28 11:12:28;;;;;;;3.85;3.55;;;;;;;21.38;67.55;94505.34;5071639;28;20190;-44
2023/05/28 11:14:55;;;;;;;4.50;4.10;;;;;;;21.28;67.14;94503.16;5072475;28;20179;-44
2023/05/28 11:17:22;;;;;;;5.28;4.80;;;;;;;20.96;68.57;94504.13;5072566;28;20187;-43
2023/05/28 11:19:51;;;;;;;5.03;4.53;;;;;;;20.80;68.93;94487.19;5073394;28;20186;-45
2023/05/28 11:22:20;;;;;;;8.30;5.00;;;;;;;20.88;68.42;94501.75;5071899;28;20198;-46
2023/05/28 11:24:56;;;;;;;5.03;4.53;;;;;;;20.83;68.57;94498.97;5071347;28;20273;-46
2023/05/28 11:27:23;;;;;;;5.03;4.63;;;;;;;20.93;68.23;94488.94;5071142;28;20287;-46
2023/05/28 11:29:50;;;;;;;7.30;5.38;;;;;;;21.26;67.13;94499.97;5071063;28;20218;-47
2023/05/28 11:32:19;;;;;;;6.38;5.00;;;;;;;21.36;67.01;94503.97;5071120;28;20198;-45